Relatórios de METAR próximas

 

LPAR - Alverca, Portugal
Distance from station: S 38km
Actualizado: 16/04/2021 17:00
NÃO Actual
Parc. Nublado
Parc. Nublado
 Vento de NO
Vento: NO 19 km/h
Temperatura: 23°C
Ponto de Orvalho: 13°C
Humidade: 53%
Barómetro: 1014 hPa
Nuvens: Parc. Nublado
Visibilidade: 10 km
Cloud details: Parc. Nublado 1067 m
2021/04/16 16:00 LPAR 161600Z 32010KT 9999 SCT035 23/13 Q1014
LPPT - Lisbon/Portela, Portugal
Distance from station: S 52km
Actualizado: 18/04/2021 18:00
Céu Limpo
Céu Limpo
 Vento de OSO
Vento: OSO 19 km/h
Temperatura: 21°C
Ponto de Orvalho: 9°C
Humidade: 46%
Barómetro: 1019 hPa
Resumo: Céu Limpo
Visibilidade: greater than 10 km
2021/04/18 17:00 LPPT 181700Z 24010KT CAVOK 21/09 Q1019
 
LPST - Sintra/Granja (a, Portugal
Distance from station: SSO 53km
Actualizado: 16/04/2021 17:00
NÃO Actual
Few Clouds
Few Clouds
 Vento de NO
Vento: NO 17 km/h
Temperatura: 17°C
Ponto de Orvalho: 14°C
Humidade: 83%
Barómetro: 1016 hPa
Nuvens: Few Clouds
Visibilidade: 10 km
Cloud details: Few Clouds 549 m
2021/04/16 16:00 LPST 161600Z 31009KT 9999 FEW018 17/14 Q1016
LPMT - Montijo (por-Afb, Portugal
Distance from station: S 59km
Actualizado: 18/04/2021 18:00
Céu Limpo
Céu Limpo
 Vento de O
Vento: O 22 km/h
Temperatura: 20°C
Ponto de Orvalho: 10°C
Humidade: 53%
Barómetro: 1019 hPa
Resumo: Céu Limpo
Visibilidade: greater than 10 km
2021/04/18 17:00 LPMT 181700Z 26012KT CAVOK 20/10 Q1019
 
LPCS - Cascais, Portugal
Distance from station: SSO 63km
Actualizado: 18/04/2021 18:00
Céu Limpo
Céu Limpo
 Vento de O
Vento: O 13 km/h
Temperatura: 19°C
Ponto de Orvalho: 8°C
Humidade: 49%
Barómetro: 1020 hPa
Resumo: Céu Limpo
Visibilidade: greater than 10 km
2021/04/18 17:00 LPCS 181700Z 28007KT 220V310 CAVOK 19/08 Q1020
LPMR - Monte Real(Por-A, Portugal
Distance from station: N 67km
Actualizado: 18/04/2021 18:00
Few Clouds
Few Clouds
 Vento de O
Vento: O 15 km/h
Temperatura: 20°C
Ponto de Orvalho: 9°C
Humidade: 49%
Barómetro: 1019 hPa
Nuvens: Few Clouds
Visibilidade: 10 km
Cloud details: Few Clouds 762 m
2021/04/18 17:00 LPMR 181700Z 28008KT 240V310 9999 FEW025 20/09 Q1019